Rome Ciampino, Italy

4:51 PM CEST on October 01, 2014 (GMT +0200)
Ciampino | Change Station
CLOSE
Current Station
Personal Weather Station
Location: Ciampino, LAZIO
Elevation: 348 ft
Nearby Weather Stations
Active Advisory: Thunderstorms

Elev 348 ft 41.81 °N, 12.60 °E | Updated 5 minutes ago

Partly Cloudy
Partly Cloudy
81.1 °F
Feels Like 83 °F
N
2.2
Wind Variable Wind from SE
Gusts 6.9 mph

Today
High -- | Low -- °F
--% Chance of Precip.
Yesterday
High -- | Low -- °F
Precip. -- in
7:06 AM 6:51 PM
Waxing Crescent, 48% visible
Pressure 30.27 in
Visibility 6.2 miles
Clouds Few 2000 ft
Heat Index 83 °F
Dew Point 65 °F
Humidity 59%
Rainfall 0.00 in
Snow Depth Not available.
UV 1 out of 12
Pollen Not available.
Air Quality Not available.
Flu Activity Not available.
METAR LIRA 301445Z 20006KT 160V260 9999 FEW020 25/15 Q1025

More Conditions Fewer Conditions

Pressure 30.27 in
Visibility 6.2 miles
Clouds Few 2000 ft
Heat Index 83 °F
Dew Point 65 °F
Humidity 59%
Rainfall 0.00 in
Snow Depth Not available.
UV 1 out of 12
Pollen Not available.
Air Quality Not available.
Flu Activity Not available.
METAR LIRA 301445Z 20006KT 160V260 9999 FEW020 25/15 Q1025

More Conditions Fewer Conditions

10-Day Weather Forecast

Almanac

Astronomy

Oct. 01, 2014 Rise Set
Actual Time 7:06 AM CEST 6:51 PM CEST
Civil Twilight 6:38 AM CEST 7:19 PM CEST
Nautical Twilight 6:06 AM CEST 7:51 PM CEST
Astronomical Twilight 5:33 AM CEST 8:24 PM CEST
Moon 1:56 PM CEST No Moon Set
Length of Visible Light 12h 40m
Length of Day
11h 45m
Tomorrow will be 2m 47s shorter.
Waxing Crescent, 48% of the Moon is Illuminated
Today
Waxing Crescent
Oct 1
First Quarter
Oct 8
Full
Oct 15
Last Quarter
Oct 23
New

Today's Extremes

Country Highs Country Lows

Community

WunderPhotos

Upload Photos

1,757,960 photos uploaded!

Nearby

Snow Depth

Not available.

Earthquake Activity

City Distance Mag. Time & Date
No recent earthquake activity has been reported nearby.
Minimum magnitude displayed is 2.5.

Coastal Water Temperatures

Place Temperature
No Stations Reporting

Nearby Weather Stations